Time;durP1;ratioP1;P1;durP2;ratioP2;P2;SDS_P1;SDS_P2;PMS_P1;PMS_P2;Temp;Humidity;BMP_temperature;BMP_pressure;BME280_temperature;BME280_humidity;BME280_pressure;Samples;Min_cycle;Max_cycle;Signal;HPM_P1;HPM_P2
2022/03/18 00:01:46;;;;;;;15.68;10.15;;;;;;;1.94;71.61;96680.34;4974114;28;20147;-82
2022/03/18 00:04:12;;;;;;;15.15;8.80;;;;;;;1.80;71.13;96641.13;4986851;28;20046;-82
2022/03/18 00:06:39;;;;;;;15.20;9.93;;;;;;;2.61;70.60;96770.91;5005226;28;20030;-82
2022/03/18 00:09:05;;;;;;;15.80;10.35;;;;;;;2.58;70.86;96790.47;4989351;28;20045;-82
2022/03/18 00:11:30;;;;;;;14.00;9.45;;;;;;;2.56;71.24;96809.97;4988035;28;20026;-82
2022/03/18 00:13:58;;;;;;;16.90;10.95;;;;;;;2.38;71.45;96796.44;4988435;28;20341;-82
2022/03/18 00:16:24;;;;;;;18.23;12.13;;;;;;;2.69;71.00;96816.16;4988000;28;20034;-82
2022/03/18 00:18:49;;;;;;;19.13;11.70;;;;;;;2.10;70.84;96752.59;4988511;28;20038;-82
2022/03/18 00:21:16;;;;;;;22.88;13.32;;;;;;;1.42;71.29;96609.06;4988699;28;20033;-82
2022/03/18 00:23:41;;;;;;;24.27;13.55;;;;;;;2.74;71.69;96818.25;4989321;28;20035;-82
2022/03/18 00:26:07;;;;;;;25.05;13.50;;;;;;;2.27;71.40;96730.47;4989876;28;20045;-82
2022/03/18 00:28:32;;;;;;;23.30;12.98;;;;;;;2.12;71.51;96713.16;4985470;28;20069;-83
2022/03/18 00:30:58;;;;;;;25.45;13.23;;;;;;;1.60;70.29;96669.66;4984042;28;20042;-82
2022/03/18 00:33:24;;;;;;;24.88;13.90;;;;;;;2.78;71.27;96829.97;4973863;28;20038;-82
2022/03/18 00:35:49;;;;;;;28.85;14.80;;;;;;;2.26;71.20;96741.94;4986701;28;20030;-82
2022/03/18 00:38:15;;;;;;;28.38;16.67;;;;;;;1.74;71.51;96704.63;4972002;28;20027;-81
2022/03/18 00:40:40;;;;;;;30.23;15.43;;;;;;;1.81;70.88;96706.34;4988760;28;20453;-81
2022/03/18 00:43:06;;;;;;;32.58;16.73;;;;;;;1.63;71.08;96650.16;4989373;28;20210;-82
2022/03/18 00:45:32;;;;;;;30.63;15.98;;;;;;;2.31;71.23;96801.59;4988174;28;20030;-82
2022/03/18 00:53:25;;;;;;;24.20;14.27;;;;;;;2.38;70.94;96820.00;4987701;28;20040;-82
2022/03/18 00:55:51;;;;;;;28.35;15.75;;;;;;;1.67;72.20;96740.34;4998469;28;20424;-82
2022/03/18 00:58:16;;;;;;;26.33;14.57;;;;;;;1.32;72.58;96716.50;4989376;28;20050;-82
2022/03/18 01:00:42;;;;;;;29.80;15.20;;;;;;;2.36;72.47;96854.25;4984383;28;20125;-82
2022/03/18 01:03:07;;;;;;;25.92;14.25;;;;;;;1.24;72.50;96676.56;4987342;28;20544;-81
2022/03/18 01:05:33;;;;;;;27.48;15.55;;;;;;;1.64;73.07;96735.47;4988180;28;20038;-81
2022/03/18 01:07:59;;;;;;;29.67;15.40;;;;;;;1.77;72.62;96774.88;4971712;28;20039;-81
2022/03/18 01:10:24;;;;;;;27.20;15.02;;;;;;;2.26;72.35;96848.44;4989245;28;20092;-81
2022/03/18 01:12:50;;;;;;;29.40;14.90;;;;;;;2.03;72.52;96798.00;4989211;28;20061;-81
2022/03/18 01:15:15;;;;;;;28.83;14.68;;;;;;;1.84;72.18;96762.72;4991035;28;20144;-82
2022/03/18 01:17:41;;;;;;;28.85;15.38;;;;;;;0.88;72.74;96666.78;4989508;28;20035;-82
2022/03/18 01:20:07;;;;;;;25.13;13.75;;;;;;;0.90;73.15;96630.84;4989135;28;20032;-82
2022/03/18 01:22:32;;;;;;;24.25;14.43;;;;;;;1.04;72.32;96673.66;4987303;28;20543;-83
2022/03/18 01:24:58;;;;;;;21.67;13.40;;;;;;;1.10;72.44;96647.63;4988458;28;20041;-82
2022/03/18 01:27:23;;;;;;;25.33;13.85;;;;;;;1.27;72.78;96718.84;4989414;28;20891;-81
2022/03/18 01:29:49;;;;;;;26.42;14.07;;;;;;;1.91;71.06;96792.38;4987590;28;20128;-82
2022/03/18 01:32:14;;;;;;;20.65;12.05;;;;;;;1.47;70.57;96713.91;4988964;28;20040;-82
2022/03/18 01:34:40;;;;;;;18.45;10.77;;;;;;;1.05;68.80;96654.38;4969694;28;20549;-82
2022/03/18 01:37:05;;;;;;;26.08;12.35;;;;;;;2.26;67.97;96840.59;4986465;28;20045;-82
2022/03/18 01:39:31;;;;;;;23.23;12.68;;;;;;;1.87;67.17;96805.03;4969522;28;20118;-82
2022/03/18 01:41:56;;;;;;;22.88;12.90;;;;;;;1.74;67.42;96762.19;4988614;28;20086;-82
2022/03/18 01:44:22;;;;;;;20.50;12.10;;;;;;;1.41;68.36;96714.63;4984344;28;20034;-82
2022/03/18 01:46:48;;;;;;;20.90;11.70;;;;;;;2.21;67.80;96848.19;4973521;28;20035;-82
2022/03/18 01:49:13;;;;;;;24.30;12.38;;;;;;;1.99;68.00;96839.41;4982628;28;20106;-82
2022/03/18 01:51:39;;;;;;;21.58;11.48;;;;;;;1.51;68.42;96730.88;4976159;28;20034;-82
2022/03/18 01:56:51;;;;;;;26.23;12.82;;;;;;;1.60;68.39;96757.75;4988504;28;20038;-82
2022/03/18 01:59:16;;;;;;;22.85;11.90;;;;;;;1.68;67.77;96805.53;4987441;28;20042;-82
2022/03/18 02:01:42;;;;;;;23.52;12.90;;;;;;;1.69;67.84;96786.25;5006150;28;20030;-82
2022/03/18 02:04:10;;;;;;;26.52;13.20;;;;;;;0.62;67.43;96632.38;5003510;28;20057;-81
2022/03/18 02:06:35;;;;;;;24.88;11.63;;;;;;;1.13;68.00;96728.28;4992312;28;20042;-82
2022/03/18 02:09:01;;;;;;;23.73;13.05;;;;;;;0.77;68.38;96693.31;4995196;28;20638;-81
2022/03/18 02:11:26;;;;;;;25.25;13.23;;;;;;;1.85;68.04;96864.56;4991805;28;20385;-82
2022/03/18 02:13:57;;;;;;;28.67;13.32;;;;;;;1.19;68.23;96760.72;5000979;28;20069;-82
2022/03/18 02:16:23;;;;;;;24.30;12.65;;;;;;;0.85;68.70;96708.09;4992987;28;20018;-82
2022/03/18 02:18:48;;;;;;;24.58;12.43;;;;;;;1.74;69.25;96835.41;5000048;28;20045;-82
2022/03/18 02:21:14;;;;;;;27.10;13.32;;;;;;;1.16;69.67;96768.91;5001647;28;20096;-82
2022/03/18 02:23:41;;;;;;;24.40;13.68;;;;;;;1.48;70.08;96839.22;5003892;28;20180;-81
2022/03/18 02:26:07;;;;;;;28.02;13.10;;;;;;;1.45;71.15;96870.94;5001555;28;20042;-81
2022/03/18 02:28:32;;;;;;;24.92;14.40;;;;;;;1.73;71.69;96865.19;4992248;28;20026;-81
2022/03/18 02:30:58;;;;;;;23.98;14.23;;;;;;;1.75;72.02;96865.81;4992580;28;20062;-82
2022/03/18 02:33:23;;;;;;;22.58;13.57;;;;;;;0.59;73.99;96721.53;4990819;28;20592;-81
2022/03/18 02:35:53;;;;;;;26.40;15.43;;;;;;;1.51;72.99;96817.97;4990815;28;20042;-82
2022/03/18 02:38:19;;;;;;;25.90;14.98;;;;;;;0.45;73.49;96715.25;5009792;28;20053;-82
2022/03/18 02:40:45;;;;;;;27.48;15.60;;;;;;;0.87;73.72;96803.59;4993420;28;20128;-82
2022/03/18 02:43:10;;;;;;;26.92;16.02;;;;;;;1.33;74.13;96859.28;5008791;28;20026;-82
2022/03/18 02:45:36;;;;;;;28.00;17.23;;;;;;;0.77;73.81;96763.81;4994199;28;20022;-82
2022/03/18 02:48:01;;;;;;;30.58;16.80;;;;;;;1.01;73.34;96804.63;5004664;28;20034;-81
2022/03/18 02:50:27;;;;;;;28.73;18.30;;;;;;;0.53;73.33;96743.91;4992349;28;20037;-82
2022/03/18 02:52:52;;;;;;;25.85;17.75;;;;;;;1.45;74.06;96899.69;4993149;28;20046;-82
2022/03/18 02:55:18;;;;;;;28.63;16.83;;;;;;;0.29;73.57;96731.81;4999890;28;20104;-82
2022/03/18 02:57:44;;;;;;;25.85;17.65;;;;;;;0.68;73.60;96763.09;5001493;28;20045;-82
2022/03/18 03:00:10;;;;;;;33.25;19.45;;;;;;;0.69;73.29;96837.78;4992343;28;20034;-83
2022/03/18 03:02:36;;;;;;;29.33;18.60;;;;;;;0.66;74.17;96838.16;4980557;28;20023;-83
2022/03/18 03:08:22;;;;;;;31.15;18.30;;;;;;;1.07;74.24;96887.53;4975030;28;20026;-83
2022/03/18 03:10:42;;;;;;;28.92;19.08;;;;;;;0.84;73.16;96839.69;4971705;28;20492;-82
2022/03/18 03:13:10;;;;;;;33.47;20.20;;;;;;;-0.04;73.90;96693.81;4989201;28;20163;-83
2022/03/18 03:15:38;;;;;;;32.40;19.15;;;;;;;1.35;73.68;96912.22;4988498;28;20026;-83
2022/03/18 03:18:04;;;;;;;35.50;19.73;;;;;;;0.12;73.08;96734.66;4981553;28;20462;-83
2022/03/18 03:20:29;;;;;;;28.15;18.75;;;;;;;0.52;73.28;96793.69;4981033;28;20206;-83
2022/03/18 03:22:55;;;;;;;32.65;19.75;;;;;;;0.48;73.85;96790.59;4980845;28;20198;-82
2022/03/18 03:25:21;;;;;;;34.08;20.17;;;;;;;-0.04;72.88;96686.00;4978159;28;20093;-82
2022/03/18 03:27:46;;;;;;;32.25;20.00;;;;;;;-0.13;72.56;96703.47;4998211;28;20037;-82
2022/03/18 03:30:12;;;;;;;35.22;20.73;;;;;;;0.42;73.36;96806.94;4990988;28;20477;-83
2022/03/18 03:32:38;;;;;;;34.63;19.88;;;;;;;1.05;74.01;96874.66;4986150;28;20037;-83
2022/03/18 03:35:05;;;;;;;35.45;20.27;;;;;;;0.80;72.94;96848.84;4998952;28;20018;-83
2022/03/18 03:37:31;;;;;;;34.75;20.25;;;;;;;0.89;73.42;96890.44;4990604;28;20035;-83
2022/03/18 03:39:56;;;;;;;35.65;18.63;;;;;;;0.57;73.16;96815.69;4972165;28;20706;-82
2022/03/18 03:42:22;;;;;;;33.13;19.25;;;;;;;-0.38;73.34;96671.47;4990708;28;20033;-83
2022/03/18 03:44:47;;;;;;;28.67;17.60;;;;;;;0.82;72.46;96897.31;4989968;28;20075;-82
2022/03/18 03:47:13;;;;;;;32.28;19.33;;;;;;;1.21;74.18;96949.53;4987623;28;20219;-83
2022/03/18 03:49:39;;;;;;;35.88;20.02;;;;;;;-0.49;72.93;96681.47;4975318;28;20192;-82
2022/03/18 03:52:04;;;;;;;30.27;17.17;;;;;;;1.22;73.04;96950.38;4988030;28;20428;-82
2022/03/18 03:54:30;;;;;;;26.73;16.02;;;;;;;0.43;73.25;96844.28;4988174;28;20021;-83
2022/03/18 03:56:55;;;;;;;28.88;17.83;;;;;;;0.46;72.84;96828.31;4989622;28;20034;-83
2022/03/18 03:59:22;;;;;;;29.25;17.60;;;;;;;1.25;73.85;96953.44;5028041;28;20038;-83
2022/03/18 04:01:47;;;;;;;24.60;16.67;;;;;;;0.30;73.17;96798.69;5029666;28;20113;-82
2022/03/18 04:04:13;;;;;;;31.48;17.42;;;;;;;0.86;72.94;96889.94;5018525;28;20022;-82
2022/03/18 04:06:38;;;;;;;28.17;17.50;;;;;;;1.51;72.81;96960.97;5009637;28;20034;-82
2022/03/18 04:09:04;;;;;;;28.08;16.95;;;;;;;0.65;71.76;96813.03;5021255;28;20025;-83
2022/03/18 04:11:30;;;;;;;30.27;16.83;;;;;;;1.51;71.35;96964.41;4997270;28;20097;-83
2022/03/18 04:13:56;;;;;;;29.52;16.63;;;;;;;0.89;71.44;96866.09;4991870;28;20022;-82
2022/03/18 04:16:21;;;;;;;23.58;14.40;;;;;;;0.87;69.94;96888.97;5025862;28;20492;-83
2022/03/18 04:18:48;;;;;;;21.85;14.50;;;;;;;1.70;70.25;96976.19;5011275;28;20037;-82
2022/03/18 04:21:14;;;;;;;21.85;14.65;;;;;;;0.68;70.72;96866.72;4989984;28;20038;-83
2022/03/18 04:23:40;;;;;;;24.20;14.55;;;;;;;1.07;70.21;96903.22;5027674;28;20029;-82
2022/03/18 04:26:06;;;;;;;23.50;12.75;;;;;;;0.48;69.05;96870.69;5008560;28;20057;-83
2022/03/18 04:28:31;;;;;;;18.45;12.93;;;;;;;1.13;71.01;97009.69;5011659;28;20118;-83
2022/03/18 04:30:57;;;;;;;23.35;13.02;;;;;;;0.22;70.21;96827.44;5023529;28;20037;-83
2022/03/18 04:33:22;;;;;;;20.58;11.63;;;;;;;-0.79;70.34;96681.22;4997803;28;20017;-83
2022/03/18 04:35:48;;;;;;;24.48;11.73;;;;;;;0.42;70.26;96845.28;5004846;28;20042;-83
2022/03/18 04:38:13;;;;;;;24.13;13.32;;;;;;;0.65;70.33;96901.81;5006005;28;20021;-82
2022/03/18 04:40:39;;;;;;;20.17;12.77;;;;;;;0.81;70.07;96906.13;5028483;28;20377;-82
2022/03/18 04:43:04;;;;;;;23.67;14.10;;;;;;;0.48;69.40;96874.13;5010829;28;20037;-82
2022/03/18 04:45:30;;;;;;;21.58;12.90;;;;;;;0.35;70.16;96859.00;5010602;28;20039;-83
2022/03/18 04:47:56;;;;;;;19.95;12.35;;;;;;;0.69;69.80;96887.41;5028451;28;20145;-82
2022/03/18 04:50:21;;;;;;;24.08;13.65;;;;;;;0.86;70.33;96936.97;5013493;28;20049;-83
2022/03/18 04:52:47;;;;;;;23.10;14.48;;;;;;;0.26;70.76;96817.44;5009629;28;20025;-82
2022/03/18 04:55:12;;;;;;;21.60;12.60;;;;;;;1.04;69.82;96927.91;5009003;28;20113;-82
2022/03/18 04:57:38;;;;;;;18.98;13.10;;;;;;;1.20;69.94;96960.97;5003105;28;20141;-82
2022/03/18 05:00:05;;;;;;;28.42;13.25;;;;;;;-0.29;69.30;96724.41;4981439;28;20524;-82
2022/03/18 05:02:31;;;;;;;23.27;14.18;;;;;;;0.81;69.78;96934.06;4975810;28;20026;-83
2022/03/18 05:04:57;;;;;;;21.23;12.98;;;;;;;1.34;69.74;97015.13;4989533;28;20034;-83
2022/03/18 05:07:24;;;;;;;22.52;13.38;;;;;;;1.03;70.66;96960.25;4988319;28;20130;-84
2022/03/18 05:09:49;;;;;;;19.65;11.82;;;;;;;0.75;70.13;96923.31;4990053;28;20117;-83
2022/03/18 05:12:16;;;;;;;22.58;13.20;;;;;;;1.07;70.87;96958.09;4989465;28;20513;-83
2022/03/18 05:14:42;;;;;;;21.67;12.38;;;;;;;0.58;70.50;96915.69;4987216;28;20054;-83
2022/03/18 05:17:09;;;;;;;21.67;13.07;;;;;;;1.29;70.96;97017.47;4985424;28;20038;-83
2022/03/18 05:19:36;;;;;;;20.70;13.55;;;;;;;0.64;70.96;96928.06;4984805;28;20113;-83
2022/03/18 05:22:06;;;;;;;21.08;11.85;;;;;;;1.35;69.26;97019.38;4986392;28;20161;-83
2022/03/18 05:24:32;;;;;;;19.90;13.48;;;;;;;1.57;70.85;97019.59;4988132;28;20512;-83
2022/03/18 05:26:58;;;;;;;27.45;14.07;;;;;;;1.62;70.29;97025.94;4987275;28;20042;-84
2022/03/18 05:29:27;;;;;;;23.05;13.85;;;;;;;1.64;70.41;97031.81;4985050;28;20053;-83
2022/03/18 05:31:53;;;;;;;23.85;13.10;;;;;;;1.72;69.43;97025.72;4973389;28;20046;-84
2022/03/18 05:34:19;;;;;;;30.23;14.90;;;;;;;1.01;69.43;96890.84;4973737;28;20058;-83
2022/03/18 05:36:45;;;;;;;23.58;13.73;;;;;;;1.10;68.56;96902.88;4980183;28;20034;-84
2022/03/18 05:39:11;;;;;;;25.58;14.15;;;;;;;1.18;69.57;96934.19;4977591;28;20043;-84
2022/03/18 05:41:37;;;;;;;24.63;13.77;;;;;;;1.51;69.78;96981.88;4986421;28;20090;-84
2022/03/18 05:44:04;;;;;;;29.10;13.85;;;;;;;1.84;68.88;97035.59;4981361;28;20026;-84
2022/03/18 05:46:29;;;;;;;23.45;13.07;;;;;;;1.12;68.84;96932.28;4982248;28;20089;-84
2022/03/18 05:48:55;;;;;;;25.25;13.30;;;;;;;0.49;67.74;96813.09;4999664;28;20046;-84
2022/03/18 05:51:20;;;;;;;18.88;11.65;;;;;;;1.29;67.36;96952.13;4980259;28;20030;-83
2022/03/18 05:53:46;;;;;;;25.00;11.77;;;;;;;0.45;66.80;96798.78;4984664;28;20054;-84
2022/03/18 05:56:57;;;;;;;27.60;12.27;;;;;;;1.54;66.19;96968.44;4981640;28;20181;-83
2022/03/18 05:58:59;;;;;;;19.20;11.00;;;;;;;1.61;66.81;97044.41;4995461;28;20061;-84
2022/03/18 06:01:25;;;;;;;17.48;10.05;;;;;;;0.80;66.19;96888.84;5011250;28;20029;-84
2022/03/18 06:03:51;;;;;;;16.80;9.48;;;;;;;0.80;64.81;96899.28;5008835;28;20069;-84
2022/03/18 06:06:16;;;;;;;22.67;10.00;;;;;;;1.09;64.83;96933.41;4988299;28;20117;-83
2022/03/18 06:14:10;;;;;;;25.13;12.75;;;;;;;0.40;67.34;96965.50;5011847;28;20051;-83
2022/03/18 06:16:37;;;;;;;23.42;12.15;;;;;;;0.96;68.03;97081.25;4994113;28;20021;-84
2022/03/18 06:19:03;;;;;;;24.35;11.93;;;;;;;0.25;68.88;96931.44;5001658;28;20045;-83
2022/03/18 06:21:28;;;;;;;24.52;13.15;;;;;;;0.40;69.40;96983.78;4994237;28;20123;-83
2022/03/18 06:23:54;;;;;;;21.70;12.27;;;;;;;0.36;68.64;96959.00;4981542;28;20033;-84
2022/03/18 06:26:19;;;;;;;26.30;13.77;;;;;;;0.70;69.01;96979.63;4988209;28;20128;-83
2022/03/18 06:28:45;;;;;;;31.10;13.77;;;;;;;0.93;68.03;96985.75;4989796;28;20034;-84
2022/03/18 06:31:10;;;;;;;27.35;13.23;;;;;;;0.94;67.55;96969.09;4988188;28;20136;-83
2022/03/18 06:33:43;;;;;;;30.80;13.65;;;;;;;1.05;67.27;97013.16;5008906;28;20034;-84
2022/03/18 06:36:12;;;;;;;38.47;13.75;;;;;;;1.45;67.04;97095.78;5004180;28;20040;-84
2022/03/18 06:38:38;;;;;;;31.58;13.38;;;;;;;0.87;66.55;96964.72;5007634;28;20040;-84
2022/03/18 06:41:04;;;;;;;23.67;11.30;;;;;;;0.85;67.34;96992.78;4991852;28;20112;-84
2022/03/18 06:43:29;;;;;;;22.85;10.38;;;;;;;0.60;66.36;96971.19;4987679;28;20038;-84
2022/03/18 06:45:55;;;;;;;21.30;10.80;;;;;;;0.59;65.53;96912.94;4998253;28;20038;-84
2022/03/18 06:48:21;;;;;;;22.15;10.95;;;;;;;0.74;64.80;96934.75;4996963;28;20033;-83
2022/03/18 06:50:46;;;;;;;18.77;11.57;;;;;;;1.90;63.30;97105.56;4990419;28;20063;-83
2022/03/18 06:53:12;;;;;;;20.85;11.38;;;;;;;0.76;62.49;96961.47;4995348;28;20033;-83
2022/03/18 06:55:37;;;;;;;15.68;9.32;;;;;;;0.49;62.07;96908.88;4996200;28;20145;-83
2022/03/18 06:58:02;;;;;;;19.83;9.35;;;;;;;1.42;62.16;97056.94;5005205;28;20068;-83
2022/03/18 07:00:28;;;;;;;26.02;11.70;;;;;;;1.25;62.68;97049.31;4996258;28;20103;-83
2022/03/18 07:02:54;;;;;;;20.83;10.00;;;;;;;1.17;61.72;97027.47;5010430;28;20045;-85
2022/03/18 07:05:19;;;;;;;22.60;9.90;;;;;;;1.15;63.09;97010.31;4980273;28;20050;-83
2022/03/18 07:07:45;;;;;;;17.38;9.35;;;;;;;1.76;62.03;97089.75;4986971;28;20033;-82
2022/03/18 07:10:13;;;;;;;15.10;9.38;;;;;;;1.45;61.83;97114.09;5006210;28;20147;-82
2022/03/18 07:12:39;;;;;;;24.73;10.48;;;;;;;1.33;62.03;97091.94;4987313;28;20487;-82
2022/03/18 07:15:06;;;;;;;21.50;10.13;;;;;;;0.89;61.39;97018.44;5003875;28;20046;-83
2022/03/18 07:20:16;;;;;;;16.52;8.93;;;;;;;1.11;58.96;97041.22;5005016;28;20048;-83
2022/03/18 07:22:42;;;;;;;15.10;8.40;;;;;;;0.45;58.01;96942.34;4985753;28;20060;-84
2022/03/18 07:25:08;;;;;;;16.13;8.57;;;;;;;1.40;58.51;97085.03;4984721;28;20348;-84
2022/03/18 07:27:34;;;;;;;14.77;8.77;;;;;;;0.93;58.14;97005.81;4991859;28;20053;-84
2022/03/18 07:29:59;;;;;;;14.80;7.82;;;;;;;1.11;58.10;97040.41;4989391;28;20800;-84
2022/03/18 07:32:24;;;;;;;11.02;6.88;;;;;;;1.26;57.76;97054.38;4991101;28;20796;-83
2022/03/18 07:34:51;;;;;;;15.35;7.75;;;;;;;1.70;58.60;97132.31;5011512;28;20045;-83
2022/03/18 07:37:17;;;;;;;21.23;8.20;;;;;;;0.90;58.04;97034.91;5002282;28;20387;-83
2022/03/18 07:39:42;;;;;;;31.50;9.70;;;;;;;1.22;56.57;97062.75;5006783;28;20030;-82
2022/03/18 07:42:08;;;;;;;17.40;8.18;;;;;;;1.77;57.01;97081.75;5010962;28;20108;-86
2022/03/18 07:44:36;;;;;;;13.98;8.30;;;;;;;1.66;57.85;97092.63;4993000;28;20041;-84
2022/03/18 07:47:03;;;;;;;16.60;9.25;;;;;;;-1.03;60.08;96672.63;5010304;28;20100;-84
2022/03/18 07:49:28;;;;;;;15.45;8.45;;;;;;;0.68;57.71;97026.81;4993441;28;20026;-82
2022/03/18 07:51:54;;;;;;;17.67;9.18;;;;;;;1.63;56.93;97100.78;4988708;28;20578;-83
2022/03/18 07:54:19;;;;;;;13.90;8.70;;;;;;;1.61;57.17;97060.91;5003686;28;20492;-83
2022/03/18 07:56:45;;;;;;;21.85;9.82;;;;;;;0.51;57.09;96897.28;5004867;28;20480;-83
2022/03/18 07:59:10;;;;;;;17.10;8.88;;;;;;;1.48;57.16;97031.91;5006244;28;20064;-84
2022/03/18 08:01:38;;;;;;;25.42;9.07;;;;;;;1.35;57.34;97069.06;4985260;28;20894;-83
2022/03/18 08:04:03;;;;;;;26.20;9.43;;;;;;;1.42;56.74;97036.00;4987938;28;20099;-83
2022/03/18 08:06:29;;;;;;;20.65;9.82;;;;;;;1.25;57.45;97057.16;4990151;28;20674;-83
2022/03/18 08:08:54;;;;;;;27.73;8.43;;;;;;;1.02;56.21;96987.34;5003929;28;20567;-83
2022/03/18 08:11:20;;;;;;;15.30;8.00;;;;;;;1.69;56.24;97109.75;4985477;28;20032;-83
2022/03/18 08:13:49;;;;;;;14.20;8.38;;;;;;;1.42;55.22;97077.84;5006757;28;20045;-84
2022/03/18 08:16:15;;;;;;;15.13;7.57;;;;;;;2.11;55.34;97159.91;5008473;28;20025;-84
2022/03/18 08:18:41;;;;;;;15.50;8.70;;;;;;;1.68;55.25;97066.28;5003877;28;20448;-83
2022/03/18 08:21:07;;;;;;;18.90;8.85;;;;;;;1.63;55.59;97035.41;5004734;28;20041;-84
2022/03/18 08:23:33;;;;;;;14.82;7.68;;;;;;;1.91;54.66;97067.09;4988827;28;20038;-84
2022/03/18 08:25:59;;;;;;;14.82;8.40;;;;;;;1.33;54.48;96970.88;4990199;28;20097;-84
2022/03/18 08:28:24;;;;;;;17.35;7.50;;;;;;;2.25;53.30;97087.66;5007591;28;20046;-82
2022/03/18 08:30:50;;;;;;;18.23;8.90;;;;;;;1.74;54.72;97062.97;4995461;28;20041;-82
2022/03/18 08:33:15;;;;;;;19.67;9.00;;;;;;;1.74;55.45;97034.22;4995812;28;20033;-83
2022/03/18 08:35:41;;;;;;;19.30;9.77;;;;;;;1.73;54.65;97022.13;5021240;28;20160;-83
2022/03/18 08:38:09;;;;;;;17.65;8.63;;;;;;;2.20;55.98;97111.75;5025991;28;20345;-83
2022/03/18 08:40:36;;;;;;;20.63;8.98;;;;;;;1.84;54.09;97045.25;5024096;28;20042;-84
2022/03/18 08:43:11;;;;;;;17.33;7.35;;;;;;;1.52;52.61;97010.47;5003031;28;20045;-85
2022/03/18 08:45:37;;;;;;;13.55;6.97;;;;;;;-0.33;51.38;96711.88;5006389;28;20038;-85
2022/03/18 08:48:03;;;;;;;12.10;7.57;;;;;;;1.94;51.00;97064.97;4992394;28;20836;-84
2022/03/18 08:50:28;;;;;;;17.23;7.78;;;;;;;2.11;51.58;97073.53;4985987;28;20823;-84
2022/03/18 08:52:56;;;;;;;21.85;8.68;;;;;;;2.00;51.73;97016.34;4997113;28;20099;-84
2022/03/18 08:55:22;;;;;;;18.17;8.82;;;;;;;2.46;52.13;97047.72;4986769;28;20026;-84
2022/03/18 08:57:48;;;;;;;18.23;8.27;;;;;;;2.57;50.35;97107.56;5002947;28;20069;-84
2022/03/18 09:00:15;;;;;;;17.40;7.85;;;;;;;2.56;49.86;97096.25;4983129;28;20050;-83
2022/03/18 09:02:43;;;;;;;17.60;8.68;;;;;;;2.50;49.04;97049.00;4982430;28;20065;-84
2022/03/18 09:05:09;;;;;;;14.98;7.85;;;;;;;2.25;50.13;96972.47;5004484;28;20055;-84
2022/03/18 09:07:37;;;;;;;18.80;8.30;;;;;;;2.15;48.25;96970.09;4988869;28;20064;-83
2022/03/18 09:10:04;;;;;;;17.60;9.45;;;;;;;1.31;47.45;96797.69;4992718;28;20038;-84
2022/03/18 09:12:30;;;;;;;16.02;8.20;;;;;;;2.83;47.96;97050.31;5005616;28;20101;-83
2022/03/18 09:14:56;;;;;;;16.08;7.90;;;;;;;3.59;47.47;97140.94;5005626;28;20091;-83
2022/03/18 09:17:21;;;;;;;20.60;8.18;;;;;;;3.10;46.94;97052.34;4990952;28;20049;-83
2022/03/18 09:19:50;;;;;;;25.75;8.75;;;;;;;3.22;48.16;97076.28;5010037;28;20065;-84
2022/03/18 09:22:16;;;;;;;19.73;9.10;;;;;;;1.30;47.82;96796.88;5017056;28;20034;-84
2022/03/18 09:24:42;;;;;;;18.17;8.02;;;;;;;3.60;47.05;97134.69;5012523;28;20026;-84
2022/03/18 09:27:09;;;;;;;15.75;7.75;;;;;;;3.39;47.98;97093.47;5008867;28;20049;-84
2022/03/18 09:29:35;;;;;;;16.15;7.63;;;;;;;3.35;48.71;97096.66;5016787;28;20108;-84
2022/03/18 09:32:01;;;;;;;12.32;8.13;;;;;;;3.10;47.50;97044.47;5006479;28;20535;-83
2022/03/18 09:34:26;;;;;;;14.35;8.13;;;;;;;1.77;46.79;96809.69;4994821;28;20030;-83
2022/03/18 09:36:54;;;;;;;14.68;7.45;;;;;;;3.98;44.73;97132.75;4982779;28;22472;-82
2022/03/18 09:39:20;;;;;;;12.82;7.28;;;;;;;1.50;44.25;96742.31;4987379;28;20416;-83
2022/03/18 09:41:46;;;;;;;13.63;7.13;;;;;;;3.33;45.08;97036.50;5008679;28;20864;-83
2022/03/18 09:44:13;;;;;;;13.40;7.70;;;;;;;3.48;45.57;97034.66;4989781;28;20034;-84
2022/03/18 09:46:41;;;;;;;13.15;8.05;;;;;;;4.21;46.42;97122.09;5005790;28;20030;-84
2022/03/18 09:49:11;;;;;;;17.45;8.15;;;;;;;2.51;43.68;96901.38;5007334;28;20552;-83
2022/03/18 09:51:39;;;;;;;15.93;8.52;;;;;;;3.03;45.82;96917.75;4997363;28;20515;-83
2022/03/18 09:54:06;;;;;;;18.45;8.60;;;;;;;3.55;45.64;96968.34;4988753;28;20090;-81
2022/03/18 09:56:36;;;;;;;16.08;8.48;;;;;;;4.04;45.79;97032.25;4991577;28;20057;-82
2022/03/18 09:59:02;;;;;;;26.58;8.60;;;;;;;4.37;45.32;97048.31;5006587;28;20535;-81
2022/03/18 10:01:27;;;;;;;12.88;7.80;;;;;;;4.66;45.50;97095.44;5003090;28;20039;-81
2022/03/18 10:03:53;;;;;;;13.88;7.85;;;;;;;4.97;43.08;97136.34;5006183;28;20030;-81
2022/03/18 10:06:27;;;;;;;15.13;8.73;;;;;;;3.98;44.39;96969.97;4987041;28;20034;-81
2022/03/18 10:08:53;;;;;;;14.00;7.43;;;;;;;4.80;42.63;97099.00;5007760;28;20035;-82
2022/03/18 10:11:20;;;;;;;13.93;8.25;;;;;;;4.80;43.01;97037.75;5006555;28;20057;-80
2022/03/18 10:14:16;;;;;;;27.98;8.75;;;;;;;3.47;40.50;96819.75;5006109;28;20113;-80
2022/03/18 10:16:43;;;;;;;16.27;8.60;;;;;;;6.01;41.90;97142.47;4989795;28;20125;-81
2022/03/18 10:19:09;;;;;;;13.57;7.38;;;;;;;5.91;40.41;97132.28;5005225;28;20037;-81
2022/03/18 10:21:51;;;;;;;22.20;8.20;;;;;;;6.38;38.56;97127.97;5001884;28;20367;-81
2022/03/18 10:24:17;;;;;;;;;;;;;;;6.79;40.10;97131.28;5003840;28;20554;-81
2022/03/18 10:26:43;;;;;;;14.50;8.80;;;;;;;5.68;38.79;96935.13;5012380;28;19940;-83
2022/03/18 10:29:11;;;;;;;21.65;9.18;;;;;;;6.95;38.60;97053.56;5006424;28;20520;-81
2022/03/18 10:31:45;;;;;;;16.65;9.48;;;;;;;7.97;38.96;97129.47;5006491;28;20029;-82
2022/03/18 10:37:11;;;;;;;34.20;10.82;;;;;;;8.23;36.77;97105.59;5003160;28;20118;-82
2022/03/18 10:39:43;;;;;;;15.15;8.75;;;;;;;8.24;36.69;97133.59;5007724;28;20034;-82
2022/03/18 10:42:13;;;;;;;18.55;10.07;;;;;;;8.72;34.66;97133.97;5008267;28;20072;-85
2022/03/18 10:44:55;;;;;;;16.45;8.68;;;;;;;8.92;34.26;97123.28;5011314;28;20034;-84
2022/03/18 10:47:29;;;;;;;17.08;8.20;;;;;;;8.28;32.36;97041.50;4999821;28;20144;-84
2022/03/18 10:50:10;;;;;;;26.17;9.88;;;;;;;8.75;32.89;97124.81;4996486;28;20072;-84
2022/03/18 10:52:36;;;;;;;24.57;8.97;;;;;;;8.40;32.97;97121.75;5013413;28;20038;-84
2022/03/18 10:55:19;;;;;;;14.23;8.13;;;;;;;8.33;34.32;97119.16;5006925;28;20283;-84
2022/03/18 10:57:53;;;;;;;18.50;8.95;;;;;;;7.36;33.39;97017.16;4990475;28;20401;-85
2022/03/18 11:00:20;;;;;;;18.77;8.75;;;;;;;7.25;34.29;97051.28;4983993;28;20021;-83
2022/03/18 11:02:48;;;;;;;17.75;8.55;;;;;;;6.61;34.12;96954.44;5008043;28;20494;-84
2022/03/18 11:05:14;;;;;;;21.52;8.45;;;;;;;6.15;34.12;96857.81;5009612;28;21616;-84
2022/03/18 11:07:43;;;;;;;17.83;7.85;;;;;;;7.40;32.53;96927.00;5004128;28;20099;-84
2022/03/18 11:13:09;;;;;;;14.95;8.48;;;;;;;6.62;30.56;96736.44;5014348;28;20059;-84
2022/03/18 11:15:39;;;;;;;17.65;8.25;;;;;;;6.69;31.01;96745.94;5020119;28;20032;-83
2022/03/18 11:18:11;;;;;;;25.25;7.97;;;;;;;9.13;30.91;97001.13;5013919;28;20030;-84
2022/03/18 11:20:42;;;;;;;15.35;7.88;;;;;;;9.81;30.47;97112.22;4992669;28;20033;-85
2022/03/18 11:23:32;;;;;;;17.00;7.93;;;;;;;9.01;30.62;97103.44;4986207;28;20037;-86
2022/03/18 11:26:17;;;;;;;15.35;7.57;;;;;;;9.02;31.11;97138.66;4994400;28;20042;-86
2022/03/18 11:29:19;;;;;;;15.05;6.95;;;;;;;9.11;31.47;97147.94;5000434;28;20026;-86
2022/03/18 11:32:12;;;;;;;18.80;7.13;;;;;;;9.31;29.80;97102.78;4978400;28;20076;-83
2022/03/18 11:34:55;;;;;;;15.23;7.35;;;;;;;6.10;32.59;96670.56;5009346;28;20025;-84
2022/03/18 11:37:21;;;;;;;11.13;5.75;;;;;;;7.39;30.49;96778.38;4995681;28;20347;-84
2022/03/18 11:39:47;;;;;;;15.32;6.78;;;;;;;8.87;29.53;96975.72;4991737;28;20049;-84
2022/03/18 11:42:18;;;;;;;13.75;6.32;;;;;;;8.77;29.40;97093.69;4993263;28;20030;-83
2022/03/18 11:44:55;;;;;;;12.68;6.85;;;;;;;9.07;29.55;97096.47;4986453;28;20091;-85
2022/03/18 11:47:33;;;;;;;13.57;7.00;;;;;;;8.87;29.71;97094.78;4993373;28;20042;-84
2022/03/18 11:50:00;;;;;;;11.80;6.70;;;;;;;7.88;30.66;97041.72;5005527;28;20033;-84
2022/03/18 11:52:26;;;;;;;15.70;7.72;;;;;;;8.52;30.28;97065.38;4984940;28;20029;-84
2022/03/18 11:55:08;;;;;;;22.42;7.72;;;;;;;6.32;31.07;96638.69;5005131;28;20022;-85